sensor_id;sensor_type;location;lat;lon;timestamp;pressure;altitude;pressure_sealevel;temperature;humidity
15932;BME280;8065;49.520;11.284;2024-03-02T16:35:49;96330.25;;;12.48;79.84
15932;BME280;8065;49.520;11.284;2024-03-02T16:38:18;96334.81;;;12.74;78.55
15932;BME280;8065;49.520;11.284;2024-03-02T16:40:46;96339.22;;;12.90;77.69
15932;BME280;8065;49.520;11.284;2024-03-02T16:43:14;96343.03;;;12.89;77.98
15932;BME280;8065;49.520;11.284;2024-03-02T16:45:43;96336.13;;;12.35;78.98
15932;BME280;8065;49.520;11.284;2024-03-02T16:48:11;96333.84;;;12.10;80.70
15932;BME280;8065;49.520;11.284;2024-03-02T16:50:39;96333.25;;;11.98;81.44
15932;BME280;8065;49.520;11.284;2024-03-02T16:53:10;96336.97;;;11.93;81.10
15932;BME280;8065;49.520;11.284;2024-03-02T16:55:41;96328.41;;;12.03;81.53
15932;BME280;8065;49.520;11.284;2024-03-02T16:58:09;96325.03;;;12.06;80.84
15932;BME280;8065;49.520;11.284;2024-03-02T17:00:37;96327.28;;;12.04;81.21
15932;BME280;8065;49.520;11.284;2024-03-02T17:03:06;96327.34;;;11.85;81.54
15932;BME280;8065;49.520;11.284;2024-03-02T17:05:34;96328.03;;;11.82;81.50
15932;BME280;8065;49.520;11.284;2024-03-02T17:08:03;96326.50;;;11.81;81.27
15932;BME280;8065;49.520;11.284;2024-03-02T17:10:34;96331.97;;;11.69;81.76
15932;BME280;8065;49.520;11.284;2024-03-02T17:13:03;96326.31;;;11.51;82.45
15932;BME280;8065;49.520;11.284;2024-03-02T17:15:31;96318.13;;;11.40;82.78
15932;BME280;8065;49.520;11.284;2024-03-02T17:17:59;96324.13;;;11.37;83.10
15932;BME280;8065;49.520;11.284;2024-03-02T17:20:28;96321.84;;;11.16;83.17
15932;BME280;8065;49.520;11.284;2024-03-02T17:22:56;96331.56;;;11.09;84.13
15932;BME280;8065;49.520;11.284;2024-03-02T17:25:24;96335.59;;;10.83;85.27
15932;BME280;8065;49.520;11.284;2024-03-02T17:27:56;96326.66;;;10.92;84.86
15932;BME280;8065;49.520;11.284;2024-03-02T17:30:44;96326.75;;;10.95;84.90
15932;BME280;8065;49.520;11.284;2024-03-02T17:33:12;96320.50;;;10.88;85.34
15932;BME280;8065;49.520;11.284;2024-03-02T17:35:41;96316.56;;;10.81;85.05
15932;BME280;8065;49.520;11.284;2024-03-02T17:38:10;96317.16;;;10.91;84.70
15932;BME280;8065;49.520;11.284;2024-03-02T17:40:39;96313.94;;;11.01;84.26
15932;BME280;8065;49.520;11.284;2024-03-02T17:43:11;96309.03;;;10.83;84.75
15932;BME280;8065;49.520;11.284;2024-03-02T17:45:39;96305.88;;;10.78;84.83
15932;BME280;8065;49.520;11.284;2024-03-02T17:48:08;96311.41;;;10.89;84.55
15932;BME280;8065;49.520;11.284;2024-03-02T17:50:37;96302.19;;;11.02;83.50
15932;BME280;8065;49.520;11.284;2024-03-02T17:53:05;96298.75;;;10.82;84.67
15932;BME280;8065;49.520;11.284;2024-03-02T17:55:33;96299.78;;;10.77;84.82
15932;BME280;8065;49.520;11.284;2024-03-02T17:58:02;96293.19;;;10.71;85.28
15932;BME280;8065;49.520;11.284;2024-03-02T18:00:33;96292.78;;;10.69;85.79
15932;BME280;8065;49.520;11.284;2024-03-02T18:03:02;96285.22;;;10.71;85.50
15932;BME280;8065;49.520;11.284;2024-03-02T18:05:30;96279.78;;;10.64;86.03
15932;BME280;8065;49.520;11.284;2024-03-02T18:07:59;96276.53;;;10.55;86.68
15932;BME280;8065;49.520;11.284;2024-03-02T18:10:27;96273.44;;;10.53;87.25
15932;BME280;8065;49.520;11.284;2024-03-02T18:12:57;96279.25;;;10.39;88.87
15932;BME280;8065;49.520;11.284;2024-03-02T18:15:25;96277.91;;;10.49;88.51
15932;BME280;8065;49.520;11.284;2024-03-02T18:17:56;96272.59;;;10.49;88.87
15932;BME280;8065;49.520;11.284;2024-03-02T18:20:25;96272.25;;;10.31;89.53
15932;BME280;8065;49.520;11.284;2024-03-02T18:22:53;96271.97;;;10.36;89.92
15932;BME280;8065;49.520;11.284;2024-03-02T18:25:23;96271.06;;;10.48;88.94
15932;BME280;8065;49.520;11.284;2024-03-02T18:27:52;96274.38;;;10.26;89.91
15932;BME280;8065;49.520;11.284;2024-03-02T18:30:20;96270.78;;;10.34;89.47
15932;BME280;8065;49.520;11.284;2024-03-02T18:32:49;96269.03;;;10.41;88.73
15932;BME280;8065;49.520;11.284;2024-03-02T18:35:20;96266.75;;;10.24;89.61
15932;BME280;8065;49.520;11.284;2024-03-02T18:37:48;96270.97;;;10.25;89.80
15932;BME280;8065;49.520;11.284;2024-03-02T18:40:16;96269.56;;;10.15;90.36
15932;BME280;8065;49.520;11.284;2024-03-02T18:42:44;96266.41;;;10.10;90.63
15932;BME280;8065;49.520;11.284;2024-03-02T18:45:13;96269.41;;;10.08;90.33
15932;BME280;8065;49.520;11.284;2024-03-02T18:47:43;96273.34;;;10.14;90.07
15932;BME280;8065;49.520;11.284;2024-03-02T18:50:12;96270.53;;;10.07;90.24
15932;BME280;8065;49.520;11.284;2024-03-02T18:52:44;96274.03;;;10.11;90.14
15932;BME280;8065;49.520;11.284;2024-03-02T18:55:13;96271.81;;;10.13;89.72
15932;BME280;8065;49.520;11.284;2024-03-02T18:57:41;96274.19;;;10.18;89.32
15932;BME280;8065;49.520;11.284;2024-03-02T19:00:10;96278.13;;;9.93;91.14
15932;BME280;8065;49.520;11.284;2024-03-02T19:02:39;96274.47;;;9.98;91.01
15932;BME280;8065;49.520;11.284;2024-03-02T19:05:08;96274.53;;;10.01;90.60
15932;BME280;8065;49.520;11.284;2024-03-02T19:07:36;96261.69;;;10.03;90.13
15932;BME280;8065;49.520;11.284;2024-03-02T19:10:08;96257.25;;;10.07;89.97
15932;BME280;8065;49.520;11.284;2024-03-02T19:12:36;96254.69;;;9.95;90.82
15932;BME280;8065;49.520;11.284;2024-03-02T19:15:06;96269.84;;;9.95;90.81
15932;BME280;8065;49.520;11.284;2024-03-02T19:17:34;96259.31;;;9.98;90.79
15932;BME280;8065;49.520;11.284;2024-03-02T19:20:03;96263.59;;;10.03;90.74
15932;BME280;8065;49.520;11.284;2024-03-02T19:22:32;96260.59;;;10.04;90.03
15932;BME280;8065;49.520;11.284;2024-03-02T19:25:01;96255.44;;;10.11;90.18
15932;BME280;8065;49.520;11.284;2024-03-02T19:27:32;96265.47;;;10.02;90.31
15932;BME280;8065;49.520;11.284;2024-03-02T19:30:00;96259.31;;;9.98;90.58
15932;BME280;8065;49.520;11.284;2024-03-02T19:32:30;96254.50;;;10.04;90.21
15932;BME280;8065;49.520;11.284;2024-03-02T19:34:58;96256.22;;;9.96;90.60
15932;BME280;8065;49.520;11.284;2024-03-02T19:37:27;96249.97;;;9.89;91.18
15932;BME280;8065;49.520;11.284;2024-03-02T19:39:55;96252.28;;;9.90;91.01
15932;BME280;8065;49.520;11.284;2024-03-02T19:42:23;96249.13;;;9.84;91.21
15932;BME280;8065;49.520;11.284;2024-03-02T19:44:55;96246.47;;;9.84;90.91
15932;BME280;8065;49.520;11.284;2024-03-02T19:47:24;96235.25;;;9.91;90.69
15932;BME280;8065;49.520;11.284;2024-03-02T19:49:54;96232.88;;;9.86;90.97
15932;BME280;8065;49.520;11.284;2024-03-02T19:52:22;96230.97;;;9.86;91.01
15932;BME280;8065;49.520;11.284;2024-03-02T19:54:50;96227.97;;;9.88;91.19
15932;BME280;8065;49.520;11.284;2024-03-02T19:57:19;96221.56;;;9.73;91.63
15932;BME280;8065;49.520;11.284;2024-03-02T19:59:48;96222.16;;;9.82;91.28
15932;BME280;8065;49.520;11.284;2024-03-02T20:02:19;96224.06;;;9.82;91.20
15932;BME280;8065;49.520;11.284;2024-03-02T20:04:52;96225.59;;;9.83;90.97
15932;BME280;8065;49.520;11.284;2024-03-02T20:07:20;96220.13;;;9.76;91.43
15932;BME280;8065;49.520;11.284;2024-03-02T20:09:48;96222.69;;;9.88;90.70
15932;BME280;8065;49.520;11.284;2024-03-02T20:12:18;96230.56;;;9.69;91.66
15932;BME280;8065;49.520;11.284;2024-03-02T20:14:46;96226.19;;;9.45;92.86
15932;BME280;8065;49.520;11.284;2024-03-02T20:17:15;96218.91;;;9.58;92.16
15932;BME280;8065;49.520;11.284;2024-03-02T20:19:46;96222.78;;;9.44;93.05
15932;BME280;8065;49.520;11.284;2024-03-02T20:22:14;96223.03;;;9.39;93.62
15932;BME280;8065;49.520;11.284;2024-03-02T20:24:42;96225.88;;;9.46;92.65
15932;BME280;8065;49.520;11.284;2024-03-02T20:27:11;96226.63;;;9.31;93.15
15932;BME280;8065;49.520;11.284;2024-03-02T20:29:39;96224.81;;;9.35;93.08
15932;BME280;8065;49.520;11.284;2024-03-02T20:32:07;96222.84;;;9.32;93.26
15932;BME280;8065;49.520;11.284;2024-03-02T20:34:35;96222.28;;;9.11;94.35
15932;BME280;8065;49.520;11.284;2024-03-02T20:37:06;96218.72;;;9.19;94.38
15932;BME280;8065;49.520;11.284;2024-03-02T20:39:35;96217.81;;;8.99;95.55
15932;BME280;8065;49.520;11.284;2024-03-02T20:42:04;96226.69;;;9.19;94.15
15932;BME280;8065;49.520;11.284;2024-03-02T20:44:33;96218.78;;;9.07;94.85
15932;BME280;8065;49.520;11.284;2024-03-02T20:47:01;96215.31;;;9.18;94.25
15932;BME280;8065;49.520;11.284;2024-03-02T20:49:29;96213.16;;;9.08;94.63
15932;BME280;8065;49.520;11.284;2024-03-02T20:51:58;96211.25;;;9.09;94.83
15932;BME280;8065;49.520;11.284;2024-03-02T20:54:28;96213.47;;;9.07;94.40
15932;BME280;8065;49.520;11.284;2024-03-02T20:56:57;96209.28;;;9.06;94.85
15932;BME280;8065;49.520;11.284;2024-03-02T20:59:25;96213.25;;;9.12;94.07
15932;BME280;8065;49.520;11.284;2024-03-02T21:01:54;96211.06;;;9.02;94.46
15932;BME280;8065;49.520;11.284;2024-03-02T21:04:22;96216.72;;;9.00;94.60
15932;BME280;8065;49.520;11.284;2024-03-02T21:06:51;96207.72;;;8.89;95.51
15932;BME280;8065;49.520;11.284;2024-03-02T21:09:19;96205.84;;;8.90;95.07
15932;BME280;8065;49.520;11.284;2024-03-02T21:11:50;96203.94;;;8.90;94.96
15932;BME280;8065;49.520;11.284;2024-03-02T21:14:18;96200.91;;;9.04;94.22
15932;BME280;8065;49.520;11.284;2024-03-02T21:16:48;96201.88;;;8.83;94.95
15932;BME280;8065;49.520;11.284;2024-03-02T21:19:17;96214.00;;;8.84;95.10
15932;BME280;8065;49.520;11.284;2024-03-02T21:21:45;96212.47;;;8.83;94.99
15932;BME280;8065;49.520;11.284;2024-03-02T21:24:14;96202.50;;;8.93;94.63
15932;BME280;8065;49.520;11.284;2024-03-02T21:26:42;96203.66;;;8.79;95.28
15932;BME280;8065;49.520;11.284;2024-03-02T21:29:16;96212.38;;;8.80;94.80
15932;BME280;8065;49.520;11.284;2024-03-02T21:31:46;96195.53;;;8.72;95.37
15932;BME280;8065;49.520;11.284;2024-03-02T21:34:18;96194.91;;;8.63;96.11
15932;BME280;8065;49.520;11.284;2024-03-02T21:36:47;96187.16;;;8.70;95.46
15932;BME280;8065;49.520;11.284;2024-03-02T21:39:16;96186.00;;;8.56;96.18
15932;BME280;8065;49.520;11.284;2024-03-02T21:41:44;96183.56;;;8.63;96.08
15932;BME280;8065;49.520;11.284;2024-03-02T21:44:15;96175.19;;;8.76;94.93
15932;BME280;8065;49.520;11.284;2024-03-02T21:46:44;96169.56;;;8.78;95.12
15932;BME280;8065;49.520;11.284;2024-03-02T21:49:13;96170.69;;;8.77;94.97
15932;BME280;8065;49.520;11.284;2024-03-02T21:51:41;96165.84;;;8.95;93.28
15932;BME280;8065;49.520;11.284;2024-03-02T21:54:09;96163.75;;;8.72;94.99
15932;BME280;8065;49.520;11.284;2024-03-02T21:56:37;96164.81;;;8.83;94.40
15932;BME280;8065;49.520;11.284;2024-03-02T21:59:06;96164.63;;;8.76;94.40
15932;BME280;8065;49.520;11.284;2024-03-02T22:01:36;96157.31;;;8.58;95.57
15932;BME280;8065;49.520;11.284;2024-03-02T22:04:05;96157.25;;;8.42;96.55
15932;BME280;8065;49.520;11.284;2024-03-02T22:06:33;96156.13;;;8.55;95.92
15932;BME280;8065;49.520;11.284;2024-03-02T22:09:01;96158.38;;;8.41;96.40
15932;BME280;8065;49.520;11.284;2024-03-02T22:11:30;96155.81;;;8.32;97.19
15932;BME280;8065;49.520;11.284;2024-03-02T22:13:59;96160.53;;;8.51;96.14
15932;BME280;8065;49.520;11.284;2024-03-02T22:16:27;96157.94;;;8.27;97.65
15932;BME280;8065;49.520;11.284;2024-03-02T22:18:58;96158.13;;;8.46;96.19
15932;BME280;8065;49.520;11.284;2024-03-02T22:21:26;96159.97;;;8.58;95.48
15932;BME280;8065;49.520;11.284;2024-03-02T22:23:54;96156.22;;;8.74;94.84
15932;BME280;8065;49.520;11.284;2024-03-02T22:26:23;96151.81;;;8.78;94.36
15932;BME280;8065;49.520;11.284;2024-03-02T22:28:51;96155.47;;;8.74;94.48
15932;BME280;8065;49.520;11.284;2024-03-02T22:31:19;96153.16;;;8.72;94.75
15932;BME280;8065;49.520;11.284;2024-03-02T22:33:48;96152.66;;;8.82;93.97
15932;BME280;8065;49.520;11.284;2024-03-02T22:36:19;96142.75;;;8.79;94.14
15932;BME280;8065;49.520;11.284;2024-03-02T22:38:47;96142.25;;;8.90;93.22
15932;BME280;8065;49.520;11.284;2024-03-02T22:41:15;96129.44;;;8.92;93.04
15932;BME280;8065;49.520;11.284;2024-03-02T22:43:44;96124.56;;;8.78;93.23
15932;BME280;8065;49.520;11.284;2024-03-02T22:46:13;96117.53;;;8.70;93.66
15932;BME280;8065;49.520;11.284;2024-03-02T22:48:42;96112.06;;;8.63;93.97
15932;BME280;8065;49.520;11.284;2024-03-02T22:51:21;96116.25;;;8.64;93.91
15932;BME280;8065;49.520;11.284;2024-03-02T22:53:50;96112.22;;;8.70;93.86
15932;BME280;8065;49.520;11.284;2024-03-02T22:56:18;96111.41;;;8.66;94.32
15932;BME280;8065;49.520;11.284;2024-03-02T22:58:47;96107.69;;;8.70;94.14
15932;BME280;8065;49.520;11.284;2024-03-02T23:01:15;96105.91;;;8.74;93.33
15932;BME280;8065;49.520;11.284;2024-03-02T23:03:46;96100.38;;;8.64;94.17
15932;BME280;8065;49.520;11.284;2024-03-02T23:06:15;96105.34;;;8.65;94.46
15932;BME280;8065;49.520;11.284;2024-03-02T23:08:47;96096.00;;;8.71;94.04
15932;BME280;8065;49.520;11.284;2024-03-02T23:11:15;96087.38;;;8.74;93.85
15932;BME280;8065;49.520;11.284;2024-03-02T23:13:43;96080.44;;;8.70;94.16
15932;BME280;8065;49.520;11.284;2024-03-02T23:16:12;96085.06;;;8.73;93.80
15932;BME280;8065;49.520;11.284;2024-03-02T23:18:40;96082.00;;;8.71;93.71
15932;BME280;8065;49.520;11.284;2024-03-02T23:21:08;96077.66;;;8.78;93.46
15932;BME280;8065;49.520;11.284;2024-03-02T23:23:36;96078.31;;;8.75;93.75
15932;BME280;8065;49.520;11.284;2024-03-02T23:26:07;96074.81;;;8.71;93.54
15932;BME280;8065;49.520;11.284;2024-03-02T23:28:36;96069.44;;;8.52;94.80
15932;BME280;8065;49.520;11.284;2024-03-02T23:31:04;96075.84;;;8.67;94.25
15932;BME280;8065;49.520;11.284;2024-03-02T23:33:32;96074.38;;;8.53;94.49
15932;BME280;8065;49.520;11.284;2024-03-02T23:36:00;96075.94;;;8.70;94.08
15932;BME280;8065;49.520;11.284;2024-03-02T23:38:29;96079.19;;;8.64;94.11
15932;BME280;8065;49.520;11.284;2024-03-02T23:40:57;96079.78;;;8.57;94.68
15932;BME280;8065;49.520;11.284;2024-03-02T23:43:36;96085.59;;;8.35;95.35
15932;BME280;8065;49.520;11.284;2024-03-02T23:46:05;96077.75;;;8.38;95.40
15932;BME280;8065;49.520;11.284;2024-03-02T23:48:33;96077.81;;;8.54;94.48
15932;BME280;8065;49.520;11.284;2024-03-02T23:51:02;96081.63;;;8.29;95.89
15932;BME280;8065;49.520;11.284;2024-03-02T23:53:30;96069.91;;;8.42;95.09
15932;BME280;8065;49.520;11.284;2024-03-02T23:56:08;96066.25;;;8.46;94.73
15932;BME280;8065;49.520;11.284;2024-03-02T23:58:39;96067.72;;;8.44;94.92
